Time;durP1;ratioP1;P1;durP2;ratioP2;P2;SDS_P1;SDS_P2;PMS_P1;PMS_P2;Temp;Humidity;BMP_temperature;BMP_pressure;BME280_temperature;BME280_humidity;BME280_pressure;Samples;Min_cycle;Max_cycle;Signal;HPM_P1;HPM_P2
2023/05/25 00:00:10;;;;;;;63.20;50.00;;;15.40;82.50;;;;;;4955027;28;85528;-74
2023/05/25 00:02:37;;;;;;;64.03;50.20;;;15.40;83.60;;;;;;4956401;28;85597;-75
2023/05/25 00:05:03;;;;;;;62.80;50.25;;;15.40;82.80;;;;;;4955247;28;85430;-75
2023/05/25 00:07:28;;;;;;;61.78;50.60;;;15.40;82.10;;;;;;4952825;28;86262;-75
2023/05/25 00:09:54;;;;;;;63.38;50.30;;;15.30;82.50;;;;;;4957719;28;85221;-75
2023/05/25 00:12:20;;;;;;;64.63;50.45;;;15.40;84.40;;;;;;4956107;28;85371;-75
2023/05/25 00:14:45;;;;;;;62.25;50.28;;;15.30;82.70;;;;;;4956217;28;87858;-75
2023/05/25 00:17:11;;;;;;;63.05;49.97;;;15.30;82.70;;;;;;4954276;28;87172;-75
2023/05/25 00:19:41;;;;;;;62.42;50.28;;;15.20;82.80;;;;;;4959481;28;85272;-75
2023/05/25 00:22:07;;;;;;;64.03;49.97;;;15.30;84.00;;;;;;4959971;28;85449;-75
2023/05/25 00:24:33;;;;;;;61.53;50.20;;;15.30;84.10;;;;;;4960835;28;85590;-73
2023/05/25 00:26:59;;;;;;;63.17;49.75;;;15.20;82.80;;;;;;4954973;28;85474;-74
2023/05/25 00:29:25;;;;;;;60.33;49.58;;;15.20;82.80;;;;;;4957830;28;85498;-75
2023/05/25 00:31:51;;;;;;;62.42;49.83;;;15.20;83.60;;;;;;4956099;28;84957;-75
2023/05/25 00:34:17;;;;;;;60.88;49.72;;;15.20;84.20;;;;;;4956612;28;85542;-75
2023/05/25 00:36:43;;;;;;;64.10;50.22;;;15.20;82.70;;;;;;4957535;28;85205;-75
2023/05/25 00:39:08;;;;;;;61.00;50.10;;;15.10;83.00;;;;;;4956265;28;85664;-74
2023/05/25 00:41:40;;;;;;;63.80;50.63;;;15.10;83.20;;;;;;4955018;28;87117;-76
2023/05/25 00:44:07;;;;;;;61.03;49.75;;;15.10;82.10;;;;;;4959328;28;86839;-73
2023/05/25 00:46:37;;;;;;;62.20;50.22;;;15.10;85.20;;;;;;4955842;28;86142;-75
2023/05/25 00:49:03;;;;;;;60.40;49.80;;;15.10;84.00;;;;;;4957466;28;85365;-75
2023/05/25 00:51:31;;;;;;;60.78;50.03;;;15.10;85.10;;;;;;4953663;28;86737;-75
2023/05/25 00:53:58;;;;;;;63.70;50.05;;;15.10;84.80;;;;;;4958654;28;85777;-75
2023/05/25 00:56:29;;;;;;;63.15;50.55;;;15.00;85.50;;;;;;4958936;28;86110;-72
2023/05/25 00:58:57;;;;;;;62.05;50.15;;;15.00;83.20;;;;;;4952023;28;85522;-74
2023/05/25 01:01:25;;;;;;;63.15;50.25;;;15.00;85.20;;;;;;4959823;28;85548;-74
2023/05/25 01:03:54;;;;;;;62.70;49.70;;;15.00;83.30;;;;;;4944512;28;85878;-74
2023/05/25 01:06:21;;;;;;;64.32;50.47;;;15.00;85.20;;;;;;4957479;28;86849;-76
2023/05/25 01:09:03;;;;;;;61.47;49.88;;;15.00;85.30;;;;;;4957735;28;85968;-73
2023/05/25 01:11:35;;;;;;;65.68;50.03;;;14.90;83.90;;;;;;4949699;28;86088;-75
2023/05/25 01:14:01;;;;;;;61.10;49.90;;;14.90;84.50;;;;;;4949260;28;85083;-77
2023/05/25 01:16:27;;;;;;;61.47;49.45;;;14.80;85.00;;;;;;4957435;28;85547;-75
2023/05/25 01:18:53;;;;;;;60.75;49.50;;;14.80;82.60;;;;;;4946471;28;85109;-74
2023/05/25 01:21:21;;;;;;;61.55;49.85;;;14.80;85.10;;;;;;4955791;28;86311;-72
2023/05/25 01:23:57;;;;;;;61.70;50.05;;;14.80;84.20;;;;;;4956058;28;85514;-75
2023/05/25 01:26:26;;;;;;;64.40;50.55;;;14.80;85.00;;;;;;4953878;28;87199;-73
2023/05/25 01:28:53;;;;;;;61.90;50.20;;;14.80;83.70;;;;;;4952725;28;85086;-76
2023/05/25 01:31:22;;;;;;;60.60;49.90;;;14.80;83.40;;;;;;4953445;28;85432;-74
2023/05/25 01:33:50;;;;;;;62.35;49.60;;;14.70;85.00;;;;;;4948659;28;85186;-74
2023/05/25 01:36:17;;;;;;;60.15;49.63;;;14.70;82.90;;;;;;4951539;28;86011;-76
2023/05/25 01:38:43;;;;;;;61.40;49.28;;;14.80;86.80;;;;;;4954856;28;85055;-75
2023/05/25 01:41:09;;;;;;;60.45;49.90;;;14.70;84.50;;;;;;4954608;28;85488;-74
2023/05/25 01:43:34;;;;;;;64.00;50.50;;;14.70;85.10;;;;;;4955340;28;85579;-74
2023/05/25 01:46:32;;;;;;;60.08;49.88;;;14.70;85.20;;;;;;4954514;28;85897;-75
2023/05/25 01:49:25;;;;;;;59.72;49.50;;;14.70;84.60;;;;;;4937002;28;86203;-74
2023/05/25 01:52:22;;;;;;;59.97;50.03;;;14.70;84.90;;;;;;4953718;28;86050;-75
2023/05/25 01:54:53;;;;;;;60.72;49.63;;;14.70;84.30;;;;;;4949862;28;85219;-75
2023/05/25 01:57:19;;;;;;;62.60;49.78;;;14.60;86.30;;;;;;4961381;28;86084;-73
2023/05/25 01:59:47;;;;;;;61.80;50.10;;;14.60;84.80;;;;;;4958373;28;85043;-75
2023/05/25 02:02:17;;;;;;;60.53;49.78;;;14.60;83.40;;;;;;4960506;28;87432;-75
2023/05/25 02:04:43;;;;;;;61.97;49.60;;;14.60;85.20;;;;;;4953989;28;85489;-75
2023/05/25 02:07:09;;;;;;;63.45;49.97;;;14.60;85.20;;;;;;4958456;28;85770;-75
2023/05/25 02:09:35;;;;;;;62.50;49.70;;;14.50;84.80;;;;;;4959313;28;85481;-75
2023/05/25 02:12:01;;;;;;;60.80;50.05;;;14.50;84.70;;;;;;4960027;28;85420;-77
2023/05/25 02:14:27;;;;;;;61.28;49.85;;;14.50;84.10;;;;;;4960966;28;85882;-73
2023/05/25 02:16:52;;;;;;;63.78;49.88;;;14.50;86.20;;;;;;4960179;28;85448;-73
2023/05/25 02:19:18;;;;;;;62.95;50.42;;;14.50;83.40;;;;;;4955438;28;85533;-75
2023/05/25 02:21:44;;;;;;;63.13;50.17;;;14.50;87.00;;;;;;4957908;28;89513;-74
2023/05/25 02:24:10;;;;;;;59.67;49.67;;;14.50;85.00;;;;;;4958272;28;86439;-75
2023/05/25 02:26:37;;;;;;;60.80;50.13;;;14.40;85.30;;;;;;4960209;28;86192;-74
2023/05/25 02:29:04;;;;;;;60.63;49.90;;;14.40;84.70;;;;;;4962132;28;85329;-75
2023/05/25 02:31:29;;;;;;;60.33;49.45;;;14.40;86.30;;;;;;4956246;28;85880;-75
2023/05/25 02:33:56;;;;;;;59.80;49.03;;;14.40;86.90;;;;;;4953845;28;86054;-73
2023/05/25 02:36:22;;;;;;;60.65;49.42;;;14.40;86.10;;;;;;4960372;28;85987;-75
2023/05/25 02:38:50;;;;;;;61.15;49.45;;;14.50;87.10;;;;;;4974431;28;85790;-73
2023/05/25 02:41:20;;;;;;;62.30;49.80;;;14.40;86.30;;;;;;4959270;28;85104;-76
2023/05/25 02:43:46;;;;;;;61.45;50.17;;;14.30;85.20;;;;;;4959543;28;90600;-77
2023/05/25 02:46:12;;;;;;;61.15;50.03;;;14.30;84.60;;;;;;4955041;28;85307;-75
2023/05/25 02:48:38;;;;;;;59.05;49.40;;;14.30;86.10;;;;;;4948914;28;85502;-75
2023/05/25 02:51:04;;;;;;;62.45;50.55;;;14.30;86.20;;;;;;4953303;28;86164;-73
2023/05/25 02:53:29;;;;;;;63.03;49.92;;;14.20;85.00;;;;;;4953528;28;85954;-75
2023/05/25 02:55:55;;;;;;;61.05;50.20;;;14.20;85.30;;;;;;4953899;28;90344;-74
2023/05/25 02:58:21;;;;;;;61.15;49.95;;;14.20;85.30;;;;;;4954407;28;85247;-74
2023/05/25 03:00:48;;;;;;;61.45;50.55;;;14.20;85.60;;;;;;4951807;28;85201;-75
2023/05/25 03:03:14;;;;;;;61.85;50.03;;;14.20;85.20;;;;;;4951195;28;85461;-74
2023/05/25 03:05:39;;;;;;;61.05;50.00;;;14.20;84.50;;;;;;4955258;28;85713;-72
2023/05/25 03:08:05;;;;;;;62.00;50.60;;;14.10;84.50;;;;;;4959853;28;85059;-72
2023/05/25 03:10:31;;;;;;;61.42;50.22;;;14.20;85.20;;;;;;4956050;28;85695;-76
2023/05/25 03:12:56;;;;;;;60.58;49.72;;;14.10;84.30;;;;;;4955708;28;85377;-75
2023/05/25 03:15:22;;;;;;;60.92;49.42;;;14.10;85.50;;;;;;4957050;28;86242;-75
2023/05/25 03:17:49;;;;;;;61.90;50.00;;;14.10;87.10;;;;;;4957411;28;85134;-75
2023/05/25 03:20:15;;;;;;;59.50;49.70;;;14.20;86.80;;;;;;4957731;28;85676;-74
2023/05/25 03:22:42;;;;;;;60.60;50.30;;;14.10;85.60;;;;;;4956080;28;86930;-75
2023/05/25 03:25:11;;;;;;;60.58;49.80;;;14.10;85.90;;;;;;4950878;28;86780;-74
2023/05/25 03:27:37;;;;;;;60.42;49.90;;;14.10;85.30;;;;;;4949370;28;87224;-73
2023/05/25 03:30:03;;;;;;;62.47;50.35;;;14.10;85.90;;;;;;4957036;28;85699;-73
2023/05/25 03:32:28;;;;;;;60.25;49.70;;;14.00;85.40;;;;;;4954142;28;91887;-74
2023/05/25 03:34:54;;;;;;;60.00;49.97;;;14.10;86.60;;;;;;4955649;28;86676;-75
2023/05/25 03:37:20;;;;;;;62.10;50.08;;;14.00;85.40;;;;;;4952690;28;85743;-75
2023/05/25 03:39:45;;;;;;;62.47;50.60;;;14.00;85.20;;;;;;4954715;28;86397;-75
2023/05/25 03:42:11;;;;;;;62.83;50.40;;;14.00;84.20;;;;;;4954358;28;89987;-75
2023/05/25 03:44:36;;;;;;;61.38;50.10;;;14.00;85.20;;;;;;4956105;28;90357;-74
2023/05/25 03:47:02;;;;;;;60.58;49.90;;;14.00;84.00;;;;;;4954709;28;86149;-76
2023/05/25 03:49:28;;;;;;;61.88;50.30;;;13.90;85.70;;;;;;4950395;28;85120;-74
2023/05/25 03:51:53;;;;;;;60.90;50.03;;;13.90;85.80;;;;;;4953298;28;85834;-75
2023/05/25 03:54:19;;;;;;;61.03;50.30;;;13.90;84.20;;;;;;4956403;28;90498;-74
2023/05/25 03:56:45;;;;;;;60.30;49.45;;;14.00;85.90;;;;;;4953392;28;85151;-74
2023/05/25 03:59:11;;;;;;;61.28;50.33;;;13.90;85.40;;;;;;4957494;28;87028;-74
2023/05/25 04:01:37;;;;;;;60.85;50.28;;;13.90;85.80;;;;;;4956527;28;86585;-74
2023/05/25 04:04:04;;;;;;;62.28;50.38;;;13.90;84.90;;;;;;4958281;28;85325;-75
2023/05/25 04:06:29;;;;;;;61.38;50.47;;;13.80;83.10;;;;;;4959838;28;85060;-72
2023/05/25 04:08:56;;;;;;;61.10;50.05;;;13.90;85.90;;;;;;4962044;28;91841;-73
2023/05/25 04:11:24;;;;;;;61.80;50.30;;;13.90;85.90;;;;;;4958986;28;89994;-75
2023/05/25 04:13:49;;;;;;;61.83;50.03;;;13.90;85.70;;;;;;4960891;28;85139;-73
2023/05/25 04:16:15;;;;;;;59.50;50.45;;;13.90;85.30;;;;;;4958480;28;85643;-74
2023/05/25 04:18:41;;;;;;;60.80;49.95;;;13.90;85.30;;;;;;4952039;28;86834;-75
2023/05/25 04:21:06;;;;;;;61.50;49.95;;;13.90;85.60;;;;;;4957229;28;85294;-74
2023/05/25 04:23:32;;;;;;;62.25;50.58;;;13.90;85.00;;;;;;4956726;28;85329;-75
2023/05/25 04:25:59;;;;;;;61.83;50.58;;;14.00;84.70;;;;;;4957005;28;85843;-74
2023/05/25 04:28:26;;;;;;;62.65;49.90;;;13.90;86.10;;;;;;4955445;28;85887;-73
2023/05/25 04:30:55;;;;;;;60.90;50.22;;;13.90;84.80;;;;;;4952999;28;85044;-74
2023/05/25 04:33:22;;;;;;;59.33;49.75;;;13.90;84.90;;;;;;4952970;28;85628;-74
2023/05/25 04:35:49;;;;;;;62.30;50.58;;;14.00;86.60;;;;;;4953999;28;85532;-74
2023/05/25 04:38:16;;;;;;;60.35;50.33;;;14.00;84.90;;;;;;4952779;28;88059;-72
2023/05/25 04:40:45;;;;;;;60.72;50.00;;;13.90;84.90;;;;;;4953306;28;86281;-76
2023/05/25 04:43:12;;;;;;;60.92;50.35;;;13.90;84.80;;;;;;4954451;28;85285;-74
2023/05/25 04:45:38;;;;;;;62.80;50.47;;;13.90;84.60;;;;;;4959118;28;85080;-73
2023/05/25 04:48:04;;;;;;;60.53;50.13;;;14.00;85.70;;;;;;4955142;28;85584;-76
2023/05/25 04:50:29;;;;;;;61.45;50.83;;;14.00;85.10;;;;;;4955134;28;85718;-75
2023/05/25 04:52:55;;;;;;;62.33;50.28;;;14.00;84.00;;;;;;4956429;28;86878;-75
2023/05/25 04:55:21;;;;;;;63.78;50.20;;;13.90;84.20;;;;;;4958284;28;85418;-75
2023/05/25 04:57:46;;;;;;;62.00;50.58;;;13.90;84.00;;;;;;4957898;28;86064;-77
2023/05/25 05:00:14;;;;;;;61.42;50.65;;;13.90;84.10;;;;;;4956586;28;86161;-77
2023/05/25 05:02:40;;;;;;;64.25;51.08;;;13.90;86.60;;;;;;4958420;28;86139;-75
2023/05/25 05:05:06;;;;;;;65.20;51.03;;;14.00;85.30;;;;;;4950533;28;89966;-76
2023/05/25 05:07:32;;;;;;;63.80;50.85;;;14.00;84.30;;;;;;4959034;28;86960;-76
2023/05/25 05:09:57;;;;;;;62.28;50.88;;;14.00;85.30;;;;;;4955995;28;84886;-76
2023/05/25 05:12:23;;;;;;;62.30;50.78;;;14.10;84.90;;;;;;4959376;28;85119;-75
2023/05/25 05:14:49;;;;;;;62.17;49.80;;;14.00;85.00;;;;;;4958129;28;85381;-77
2023/05/25 05:17:16;;;;;;;60.80;50.17;;;14.10;84.50;;;;;;4961785;28;85774;-75
2023/05/25 05:19:41;;;;;;;61.35;50.58;;;14.10;85.50;;;;;;4954524;28;85814;-76
2023/05/25 05:22:08;;;;;;;61.90;50.53;;;14.10;83.70;;;;;;4956932;28;87034;-75
2023/05/25 05:24:34;;;;;;;61.40;49.70;;;14.10;85.90;;;;;;4952235;28;86028;-74
2023/05/25 05:27:00;;;;;;;60.70;49.92;;;14.20;86.10;;;;;;4956130;28;85407;-73
2023/05/25 05:29:27;;;;;;;61.47;50.55;;;14.30;86.20;;;;;;4954853;28;84961;-76
2023/05/25 05:31:54;;;;;;;63.75;51.00;;;14.20;85.10;;;;;;4947040;28;91816;-75
2023/05/25 05:34:20;;;;;;;63.13;50.55;;;14.20;85.30;;;;;;4956685;28;85503;-74
2023/05/25 05:36:45;;;;;;;62.03;50.88;;;14.30;82.50;;;;;;4967273;28;85592;-75
2023/05/25 05:39:11;;;;;;;60.92;49.88;;;14.20;81.40;;;;;;4961716;28;85109;-73
2023/05/25 05:41:36;;;;;;;60.42;50.20;;;14.40;87.40;;;;;;4960080;28;85741;-75
2023/05/25 05:44:02;;;;;;;58.88;49.58;;;14.30;81.10;;;;;;4959174;28;86240;-75
2023/05/25 05:46:28;;;;;;;60.25;49.92;;;14.30;84.10;;;;;;4957810;28;86064;-74
2023/05/25 05:48:53;;;;;;;62.40;49.83;;;14.50;87.60;;;;;;4951170;28;85353;-76
2023/05/25 05:51:19;;;;;;;62.67;50.60;;;14.70;85.40;;;;;;4955915;28;85535;-74
2023/05/25 05:53:44;;;;;;;66.05;50.50;;;14.80;85.60;;;;;;4962120;28;84614;-76
2023/05/25 05:56:17;;;;;;;63.45;50.45;;;14.90;86.60;;;;;;4962591;28;85201;-76
2023/05/25 05:58:44;;;;;;;66.45;50.72;;;15.00;83.10;;;;;;4960302;28;85048;-76
2023/05/25 06:01:09;;;;;;;62.50;49.72;;;15.00;83.70;;;;;;4958275;28;87621;-76
2023/05/25 06:03:36;;;;;;;66.55;50.80;;;15.00;85.50;;;;;;4956755;28;84695;-77
2023/05/25 06:06:03;;;;;;;64.20;50.47;;;15.10;82.80;;;;;;4956477;28;86148;-74
2023/05/25 06:08:28;;;;;;;63.75;50.63;;;15.10;82.60;;;;;;4954436;28;85643;-77
2023/05/25 06:10:54;;;;;;;65.70;50.65;;;15.20;86.00;;;;;;4961091;28;90150;-75
2023/05/25 06:13:20;;;;;;;63.90;50.63;;;15.10;82.90;;;;;;4961200;28;85037;-76
2023/05/25 06:15:46;;;;;;;63.05;50.08;;;15.20;82.50;;;;;;4962967;28;85062;-77
2023/05/25 06:18:12;;;;;;;64.80;50.35;;;15.20;84.10;;;;;;4960338;28;86511;-75
2023/05/25 06:20:37;;;;;;;61.55;49.60;;;15.20;81.20;;;;;;4955708;28;87416;-75
2023/05/25 06:23:03;;;;;;;62.17;50.10;;;15.10;84.30;;;;;;4960140;28;85671;-76
2023/05/25 06:25:28;;;;;;;64.78;49.60;;;15.10;79.90;;;;;;4956601;28;85327;-76
2023/05/25 06:27:54;;;;;;;65.35;50.67;;;15.10;82.80;;;;;;4963169;28;85044;-75
2023/05/25 06:30:20;;;;;;;63.20;50.08;;;15.20;82.20;;;;;;4955014;28;85159;-78
2023/05/25 06:32:46;;;;;;;64.03;50.03;;;15.20;84.20;;;;;;4961384;28;86227;-77
2023/05/25 06:35:18;;;;;;;62.42;50.00;;;15.20;83.30;;;;;;4950203;28;87525;-76
2023/05/25 06:37:45;;;;;;;61.78;49.85;;;15.30;85.80;;;;;;4958791;28;86500;-76
2023/05/25 06:40:11;;;;;;;67.72;50.15;;;15.30;82.50;;;;;;4953723;28;85618;-80
2023/05/25 06:42:36;;;;;;;60.92;49.63;;;15.30;83.80;;;;;;4959395;28;84807;-76
2023/05/25 06:45:03;;;;;;;61.65;50.30;;;15.30;82.70;;;;;;4959264;28;90519;-78
2023/05/25 06:47:29;;;;;;;61.08;50.03;;;15.20;82.90;;;;;;4953023;28;86941;-76
2023/05/25 06:49:55;;;;;;;62.67;50.00;;;15.30;82.70;;;;;;4956487;28;86021;-77
2023/05/25 06:52:21;;;;;;;61.67;49.95;;;15.30;83.40;;;;;;4959952;28;84814;-75
2023/05/25 06:54:46;;;;;;;62.10;49.85;;;15.30;79.80;;;;;;4961783;28;87747;-76
2023/05/25 06:57:12;;;;;;;63.13;49.95;;;15.30;81.50;;;;;;4960360;28;87028;-75
2023/05/25 06:59:38;;;;;;;62.28;49.78;;;15.30;81.10;;;;;;4960735;28;85394;-75
2023/05/25 07:02:03;;;;;;;63.38;50.05;;;15.50;86.40;;;;;;4967788;28;85607;-74
2023/05/25 07:04:29;;;;;;;65.97;50.03;;;15.50;83.10;;;;;;4955214;28;85270;-73
2023/05/25 07:06:54;;;;;;;64.55;50.13;;;15.70;82.80;;;;;;4948682;28;86220;-73
2023/05/25 07:09:21;;;;;;;65.65;49.75;;;15.70;83.00;;;;;;4957142;28;85391;-75
2023/05/25 07:11:46;;;;;;;66.55;50.08;;;15.80;87.00;;;;;;4954319;28;85034;-76
2023/05/25 07:14:12;;;;;;;67.40;50.65;;;16.00;87.80;;;;;;4949479;28;85124;-73
2023/05/25 07:16:46;;;;;;;68.53;51.05;;;16.10;85.60;;;;;;4952228;28;85686;-75
2023/05/25 07:19:12;;;;;;;66.55;50.65;;;16.00;82.70;;;;;;4954575;28;87984;-76
2023/05/25 07:21:38;;;;;;;69.20;51.25;;;16.00;79.60;;;;;;4959297;28;84990;-77
2023/05/25 07:24:04;;;;;;;67.78;50.88;;;16.00;79.00;;;;;;4954882;28;85468;-75
2023/05/25 07:26:31;;;;;;;71.60;50.95;;;16.00;77.70;;;;;;4955743;28;85316;-77
2023/05/25 07:28:56;;;;;;;66.53;50.83;;;16.10;76.80;;;;;;4957327;28;86652;-78
2023/05/25 07:31:22;;;;;;;69.97;51.28;;;16.10;76.40;;;;;;4957560;28;85153;-77
2023/05/25 07:33:48;;;;;;;67.70;50.78;;;16.10;75.90;;;;;;4962138;28;85079;-76
2023/05/25 07:36:14;;;;;;;66.47;51.00;;;16.10;75.20;;;;;;4964065;28;85394;-77
2023/05/25 07:38:40;;;;;;;68.50;50.85;;;16.10;74.70;;;;;;4963491;28;85593;-77
2023/05/25 07:41:05;;;;;;;68.10;51.08;;;16.00;75.00;;;;;;4958592;28;85151;-75
2023/05/25 07:43:31;;;;;;;66.78;50.72;;;16.10;74.60;;;;;;4960098;28;86596;-79
2023/05/25 07:45:57;;;;;;;66.07;50.83;;;16.10;74.20;;;;;;4956105;28;85810;-74
2023/05/25 07:48:22;;;;;;;65.88;50.42;;;16.10;73.80;;;;;;4953248;28;85140;-77
2023/05/25 07:53:15;;;;;;;67.88;50.70;;;16.20;73.50;;;;;;4980075;28;82998;-57
2023/05/25 07:55:40;;;;;;;65.28;50.65;;;16.20;73.90;;;;;;4977229;28;85459;-52
2023/05/25 07:58:06;;;;;;;64.82;50.72;;;16.30;73.70;;;;;;4968289;28;85255;-60
2023/05/25 08:00:32;;;;;;;70.45;50.55;;;16.30;73.40;;;;;;4961650;28;85155;-60
2023/05/25 08:02:58;;;;;;;64.28;50.05;;;16.30;72.80;;;;;;4951836;28;85634;-60
2023/05/25 08:05:23;;;;;;;70.03;50.85;;;16.40;72.60;;;;;;4946899;28;85195;-59
2023/05/25 08:07:49;;;;;;;63.42;50.20;;;16.40;71.80;;;;;;4949671;28;85529;-57
2023/05/25 08:10:15;;;;;;;66.63;50.22;;;16.30;71.70;;;;;;4947462;28;85382;-58
2023/05/25 08:12:40;;;;;;;65.07;50.05;;;16.40;71.70;;;;;;4944688;28;90717;-59
2023/05/25 08:15:06;;;;;;;65.75;50.22;;;16.40;71.50;;;;;;4942556;28;86366;-59
2023/05/25 08:18:55;;;;;;;66.03;50.30;;;16.50;70.90;;;;;;4895934;28;83398;-54
2023/05/25 08:21:21;;;;;;;63.92;50.33;;;16.50;72.20;;;;;;4875135;28;85505;-58
2023/05/25 08:26:14;;;;;;;66.40;50.13;;;16.60;71.20;;;;;;4984732;28;82741;-64
2023/05/25 08:28:39;;;;;;;64.10;50.28;;;16.60;71.80;;;;;;4964723;28;85015;-66
2023/05/25 08:31:06;;;;;;;66.82;50.45;;;16.60;71.50;;;;;;4966026;28;85485;-61
2023/05/25 08:33:32;;;;;;;66.80;50.50;;;16.50;71.50;;;;;;4973634;28;85679;-64
2023/05/25 08:35:58;;;;;;;64.10;50.30;;;16.60;70.60;;;;;;4967384;28;86503;-63
2023/05/25 08:38:24;;;;;;;64.00;50.00;;;16.60;70.80;;;;;;4971405;28;85919;-59
2023/05/25 08:41:03;;;;;;;67.57;50.53;;;16.70;70.90;;;;;;4972499;28;86139;-61
2023/05/25 08:43:29;;;;;;;67.35;50.40;;;16.70;70.30;;;;;;4971840;28;85726;-58
2023/05/25 08:46:02;;;;;;;70.07;50.75;;;16.70;70.20;;;;;;4976802;28;90455;-56
2023/05/25 08:48:31;;;;;;;63.83;50.28;;;16.70;70.30;;;;;;4946102;28;87740;-56
2023/05/25 08:51:03;;;;;;;62.58;49.53;;;16.80;70.60;;;;;;4968608;28;85329;-56
2023/05/25 08:53:35;;;;;;;66.70;50.47;;;16.80;70.30;;;;;;4970492;28;90812;-54
2023/05/25 08:56:01;;;;;;;;;;;16.80;70.30;;;;;;4944881;28;89579;-50
2023/05/25 08:58:33;;;;;;;65.70;50.30;;;16.90;70.30;;;;;;4936765;28;85402;-56
2023/05/25 09:01:05;;;;;;;66.22;50.30;;;16.90;70.20;;;;;;4954762;28;86268;-58
2023/05/25 09:03:32;;;;;;;66.90;50.47;;;16.90;70.00;;;;;;4955568;28;85384;-59
2023/05/25 09:05:58;;;;;;;66.03;50.75;;;17.00;69.80;;;;;;4953705;28;85107;-61
2023/05/25 09:08:26;;;;;;;66.35;50.90;;;17.00;69.80;;;;;;4947828;28;86039;-62
2023/05/25 09:10:52;;;;;;;64.32;50.95;;;17.10;69.70;;;;;;4929529;28;87394;-63
2023/05/25 09:13:18;;;;;;;69.03;50.70;;;17.10;69.80;;;;;;4959697;28;85335;-55
2023/05/25 09:16:39;;;;;;;67.70;51.05;;;17.10;68.70;;;;;;4994299;28;87957;-66
2023/05/25 09:19:04;;;;;;;66.93;50.60;;;17.10;68.90;;;;;;4990872;28;85439;-57
2023/05/25 09:21:30;;;;;;;69.38;51.28;;;17.20;69.60;;;;;;4989865;28;85053;-54
2023/05/25 09:23:58;;;;;;;67.60;50.95;;;17.20;68.90;;;;;;4982280;28;85156;-54
2023/05/25 09:26:23;;;;;;;66.18;50.95;;;17.20;68.20;;;;;;4991324;28;85525;-55
2023/05/25 09:28:49;;;;;;;67.43;51.30;;;17.30;67.60;;;;;;4988049;28;86577;-61
2023/05/25 09:31:15;;;;;;;64.43;50.70;;;17.30;68.10;;;;;;4986371;28;85539;-60
2023/05/25 09:33:42;;;;;;;65.22;50.67;;;17.30;67.90;;;;;;4995619;27;85100;-59
2023/05/25 09:36:08;;;;;;;70.57;51.28;;;17.40;68.30;;;;;;4990318;27;87837;-56
2023/05/25 09:38:35;;;;;;;66.00;51.20;;;17.40;67.80;;;;;;4997102;28;85452;-60
2023/05/25 09:41:01;;;;;;;66.32;51.17;;;17.40;67.40;;;;;;4995217;28;85186;-57
2023/05/25 09:43:26;;;;;;;67.20;50.80;;;17.50;67.50;;;;;;4999753;28;84975;-59
2023/05/25 09:45:52;;;;;;;64.75;50.60;;;17.50;68.10;;;;;;4995756;28;85023;-58
2023/05/25 09:48:20;;;;;;;67.50;50.75;;;17.50;68.60;;;;;;4997073;27;90548;-56
2023/05/25 09:50:46;;;;;;;67.28;50.85;;;17.50;67.70;;;;;;4990709;28;85822;-57
2023/05/25 09:53:12;;;;;;;67.03;51.08;;;17.50;67.00;;;;;;4990117;28;89518;-62
2023/05/25 09:55:38;;;;;;;66.10;50.95;;;17.60;67.50;;;;;;4990459;28;85150;-57
2023/05/25 09:58:06;;;;;;;67.03;51.22;;;17.70;66.60;;;;;;4980642;28;87916;-58
2023/05/25 10:02:31;;;;;;;66.30;50.88;;;17.70;67.10;;;;;;5044024;27;87811;-60
2023/05/25 10:04:57;;;;;;;69.28;51.00;;;17.70;66.60;;;;;;5003042;27;85730;-67
2023/05/25 10:07:25;;;;;;;65.45;50.63;;;17.80;66.70;;;;;;5010316;27;85113;-65
2023/05/25 10:09:53;;;;;;;66.05;50.80;;;17.80;66.50;;;;;;5002286;27;85730;-61
2023/05/25 10:12:21;;;;;;;67.28;51.08;;;17.80;66.40;;;;;;5010102;28;92944;-61
2023/05/25 10:14:50;;;;;;;66.80;50.95;;;17.90;66.30;;;;;;5008767;27;85537;-61
2023/05/25 10:17:22;;;;;;;68.72;50.65;;;17.90;67.30;;;;;;5022934;27;86041;-66
2023/05/25 10:20:00;;;;;;;67.40;51.08;;;17.90;66.60;;;;;;5003407;27;85370;-67
2023/05/25 10:22:39;;;;;;;68.32;51.63;;;18.00;67.50;;;;;;5008189;27;85383;-65
2023/05/25 10:25:23;;;;;;;72.07;52.10;;;18.00;66.30;;;;;;5010261;27;91202;-66
2023/05/25 10:28:00;;;;;;;75.15;51.72;;;18.10;66.50;;;;;;5002639;28;93503;-61
2023/05/25 10:30:26;;;;;;;67.55;51.45;;;18.10;67.10;;;;;;5010146;27;85183;-60
2023/05/25 10:32:56;;;;;;;65.97;51.58;;;18.10;66.30;;;;;;5009670;27;85272;-66
2023/05/25 10:35:23;;;;;;;66.28;51.30;;;18.20;65.80;;;;;;5005898;27;86270;-67
2023/05/25 10:37:51;;;;;;;65.78;50.85;;;18.20;65.80;;;;;;5005679;27;90692;-62
2023/05/25 10:40:20;;;;;;;68.60;51.97;;;18.20;66.40;;;;;;5008187;27;85108;-62
2023/05/25 10:42:46;;;;;;;67.65;51.80;;;18.20;65.20;;;;;;5007917;27;88072;-67
2023/05/25 10:45:12;;;;;;;70.35;52.33;;;18.30;65.60;;;;;;5006361;27;85713;-59
2023/05/25 10:47:42;;;;;;;71.60;52.55;;;18.30;64.30;;;;;;5005246;27;86279;-55
2023/05/25 10:50:20;;;;;;;69.15;51.80;;;18.30;64.50;;;;;;5010467;27;85742;-61
2023/05/25 10:53:05;;;;;;;68.50;51.63;;;18.40;64.30;;;;;;5010266;27;85233;-60
2023/05/25 10:55:53;;;;;;;67.55;52.35;;;18.40;66.30;;;;;;5014627;27;85716;-58
2023/05/25 10:58:21;;;;;;;68.15;52.33;;;18.50;65.50;;;;;;5015106;27;85367;-59
2023/05/25 11:01:06;;;;;;;67.28;51.97;;;18.60;65.70;;;;;;5014672;27;85487;-61
2023/05/25 11:03:47;;;;;;;68.43;52.63;;;18.60;66.20;;;;;;5012723;27;85684;-58
2023/05/25 11:06:20;;;;;;;68.57;52.63;;;18.60;65.00;;;;;;5014580;27;86161;-56
2023/05/25 11:08:52;;;;;;;66.03;52.17;;;18.60;64.70;;;;;;5011597;27;85174;-62
2023/05/25 11:11:18;;;;;;;66.78;52.65;;;18.60;65.70;;;;;;5005442;27;87406;-63
2023/05/25 11:13:48;;;;;;;70.57;53.50;;;18.70;64.70;;;;;;4994092;27;87487;-59
2023/05/25 11:16:26;;;;;;;68.60;52.78;;;18.70;63.70;;;;;;4984330;28;87378;-58
2023/05/25 11:18:58;;;;;;;70.05;53.10;;;18.70;64.40;;;;;;4983378;28;86396;-57
2023/05/25 11:22:35;;;;;;;67.13;52.60;;;18.80;63.40;;;;;;5007886;27;83366;-55
2023/05/25 11:25:21;;;;;;;72.70;53.90;;;18.80;63.60;;;;;;5011966;27;85505;-54
2023/05/25 11:27:47;;;;;;;67.85;52.53;;;18.80;62.80;;;;;;5005754;27;85015;-57
2023/05/25 11:30:17;;;;;;;68.50;52.78;;;18.90;64.00;;;;;;5005270;27;85124;-57
2023/05/25 11:32:49;;;;;;;68.13;52.40;;;18.90;63.40;;;;;;5009023;27;85143;-61
2023/05/25 11:35:15;;;;;;;67.88;52.13;;;18.90;63.20;;;;;;5005424;27;85815;-55
2023/05/25 11:37:48;;;;;;;69.20;52.70;;;18.90;63.60;;;;;;5011320;27;86247;-59
2023/05/25 11:40:14;;;;;;;67.07;52.95;;;19.00;63.20;;;;;;5009305;27;85643;-61
2023/05/25 11:42:41;;;;;;;68.93;52.80;;;19.00;59.70;;;;;;5009288;27;85191;-61
2023/05/25 11:45:12;;;;;;;69.95;53.95;;;19.20;59.80;;;;;;5006656;27;84830;-60
2023/05/25 11:47:38;;;;;;;70.28;53.67;;;19.30;57.80;;;;;;5004087;27;85119;-61
2023/05/25 11:50:04;;;;;;;71.88;54.83;;;19.40;58.10;;;;;;5002349;27;86021;-61
2023/05/25 11:52:30;;;;;;;70.60;54.15;;;19.30;55.80;;;;;;5004406;27;85282;-61
2023/05/25 11:54:56;;;;;;;70.13;53.17;;;19.20;56.20;;;;;;5009083;27;87024;-63
2023/05/25 11:57:24;;;;;;;69.20;53.63;;;19.30;56.40;;;;;;5002448;27;91346;-64
2023/05/25 11:59:56;;;;;;;68.55;53.83;;;19.40;56.20;;;;;;5006699;27;85082;-61
2023/05/25 12:04:33;;;;;;;68.53;53.38;;;19.40;57.10;;;;;;4987942;28;83073;-61
2023/05/25 12:07:06;;;;;;;70.03;53.80;;;19.50;56.70;;;;;;4972290;28;86460;-62
2023/05/25 12:09:32;;;;;;;71.78;53.22;;;19.60;55.80;;;;;;4968399;28;84955;-58
2023/05/25 12:11:59;;;;;;;70.95;54.05;;;19.70;57.80;;;;;;4965902;28;86900;-61
2023/05/25 12:14:25;;;;;;;69.68;54.15;;;19.70;57.00;;;;;;4966099;28;85947;-65
2023/05/25 12:16:52;;;;;;;70.57;55.03;;;19.80;55.20;;;;;;5001883;27;86786;-64
2023/05/25 12:19:18;;;;;;;71.47;54.45;;;19.80;54.50;;;;;;4964438;28;85648;-60
2023/05/25 12:21:44;;;;;;;72.03;55.17;;;19.90;55.30;;;;;;4965721;28;89509;-60
2023/05/25 12:24:13;;;;;;;70.45;54.33;;;19.70;54.10;;;;;;4968936;28;86762;-59
2023/05/25 12:26:49;;;;;;;69.60;53.75;;;19.70;55.30;;;;;;4973556;28;85121;-56
2023/05/25 12:29:14;;;;;;;72.53;54.78;;;19.90;56.60;;;;;;4968141;28;85330;-58
2023/05/25 12:31:40;;;;;;;72.45;54.10;;;19.70;54.90;;;;;;4969983;28;85556;-60
2023/05/25 12:34:16;;;;;;;70.88;54.22;;;19.90;55.30;;;;;;4968315;28;85657;-60
2023/05/25 12:36:45;;;;;;;71.10;53.97;;;20.00;54.10;;;;;;4959692;28;101248;-57
2023/05/25 12:39:12;;;;;;;70.60;53.95;;;20.00;55.40;;;;;;4963931;28;85275;-57
2023/05/25 12:41:43;;;;;;;70.60;53.45;;;20.00;54.50;;;;;;4970730;28;85608;-56